createdAt,value
2023-03-05T00:05:58.525Z,4.02
2023-03-05T00:16:04.308Z,4.01
2023-03-05T00:26:08.296Z,3.83
2023-03-05T00:36:11.610Z,3.70
2023-03-05T00:46:15.638Z,3.73
2023-03-05T00:56:18.239Z,3.64
2023-03-05T01:06:22.316Z,3.46
2023-03-05T01:16:25.004Z,3.46
2023-03-05T01:26:29.071Z,3.47
2023-03-05T01:36:31.994Z,3.58
2023-03-05T01:46:38.050Z,3.68
2023-03-05T01:56:42.395Z,3.72
2023-03-05T02:06:47.571Z,3.61
2023-03-05T02:16:50.239Z,3.67
2023-03-05T02:26:54.610Z,3.58
2023-03-05T02:36:57.239Z,3.60
2023-03-05T02:47:01.520Z,3.61
2023-03-05T02:57:04.379Z,3.58
2023-03-05T03:07:08.450Z,3.56
2023-03-05T03:17:13.197Z,3.43
2023-03-05T03:27:17.156Z,3.55
2023-03-05T03:37:19.837Z,3.72
2023-03-05T03:47:23.809Z,3.56
2023-03-05T03:57:26.406Z,3.64
2023-03-05T04:07:30.408Z,3.49
2023-03-05T04:17:34.225Z,3.46
2023-03-05T04:27:40.081Z,3.36
2023-03-05T04:37:42.819Z,3.32
2023-03-05T04:47:46.849Z,3.19
2023-03-05T04:57:49.474Z,3.24
2023-03-05T05:07:57.056Z,3.17
2023-03-05T05:17:59.920Z,3.08
2023-03-05T05:28:03.945Z,2.94
2023-03-05T05:38:06.564Z,3.06
2023-03-05T05:48:10.669Z,2.86
2023-03-05T05:58:13.349Z,2.74
2023-03-05T06:08:17.398Z,2.65
2023-03-05T06:18:20.013Z,2.70
2023-03-05T06:28:23.977Z,2.76
2023-03-05T06:38:26.985Z,2.79
2023-03-05T06:48:31.141Z,2.94
2023-03-05T06:58:33.873Z,3.23
2023-03-05T07:08:38.928Z,3.38
2023-03-05T07:18:41.617Z,3.54
2023-03-05T07:28:45.625Z,3.53
2023-03-05T07:38:48.333Z,3.54
2023-03-05T07:48:52.550Z,3.71
2023-03-05T07:58:55.412Z,3.89
2023-03-05T08:09:00.142Z,4.50
2023-03-05T08:19:02.884Z,4.67
2023-03-05T08:29:07.894Z,4.69
2023-03-05T08:39:10.797Z,4.97
2023-03-05T08:49:14.728Z,5.12
2023-03-05T08:59:17.653Z,6.01
2023-03-05T09:09:22.937Z,6.37
2023-03-05T09:19:27.356Z,6.76
2023-03-05T09:29:31.460Z,6.73
2023-03-05T09:39:34.092Z,6.98
2023-03-05T09:49:46.761Z,7.05
2023-03-05T09:59:52.786Z,7.38
2023-03-05T10:09:59.774Z,6.53
2023-03-05T10:20:23.485Z,7.19
2023-03-05T10:30:48.281Z,7.13
2023-03-05T10:40:53.662Z,5.59
2023-03-05T10:51:02.234Z,6.31
2023-03-05T11:01:21.952Z,6.91
2023-03-05T11:11:26.940Z,7.87
2023-03-05T11:21:30.517Z,8.91
2023-03-05T11:31:34.644Z,10.41
2023-03-05T11:41:40.010Z,11.48
2023-03-05T11:51:49.804Z,10.75
2023-03-05T12:01:54.716Z,17.62
2023-03-05T12:12:07.869Z,16.66
2023-03-05T12:22:18.500Z,22.21
2023-03-05T12:32:57.122Z,19.96
2023-03-05T12:43:01.466Z,23.30
2023-03-05T12:53:13.538Z,16.98
2023-03-05T13:03:19.281Z,15.71
2023-03-05T13:13:25.421Z,11.40
2023-03-05T13:23:29.320Z,13.91
2023-03-05T13:33:35.697Z,15.56
2023-03-05T13:43:44.417Z,14.60
2023-03-05T13:53:49.303Z,13.18
2023-03-05T14:03:53.902Z,12.60
2023-03-05T14:14:07.883Z,11.97
2023-03-05T14:24:14.394Z,10.10
2023-03-05T14:34:23.859Z,9.44
2023-03-05T14:44:26.525Z,10.78
2023-03-05T14:54:36.993Z,10.01
2023-03-05T15:04:40.514Z,9.35
2023-03-05T15:14:44.667Z,9.38
2023-03-05T15:24:47.305Z,10.18
2023-03-05T15:34:51.279Z,9.27
2023-03-05T15:44:54.002Z,8.63
2023-03-05T15:54:57.949Z,8.16
2023-03-05T16:05:00.561Z,6.99
2023-03-05T16:15:05.154Z,6.11
2023-03-05T16:25:08.744Z,6.00
2023-03-05T16:35:13.132Z,5.87
2023-03-05T16:45:15.884Z,5.46
2023-03-05T16:55:19.931Z,5.33
2023-03-05T17:05:22.650Z,5.42
2023-03-05T17:15:26.678Z,5.65
2023-03-05T17:25:29.540Z,5.82
2023-03-05T17:35:34.994Z,5.99
2023-03-05T17:45:37.879Z,5.52
2023-03-05T17:55:41.872Z,5.15
2023-03-05T18:05:45.405Z,5.20
2023-03-05T18:15:49.386Z,5.08
2023-03-05T18:25:51.997Z,5.01
2023-03-05T18:35:56.053Z,5.03
2023-03-05T18:45:59.126Z,5.02
2023-03-05T18:56:03.233Z,4.96
2023-03-05T19:06:07.480Z,4.92
2023-03-05T19:16:13.786Z,4.79
2023-03-05T19:26:16.417Z,4.83
2023-03-05T19:36:20.447Z,4.80
2023-03-05T19:46:23.495Z,4.88
2023-03-05T19:56:27.725Z,4.82
2023-03-05T20:06:31.723Z,4.75
2023-03-05T20:16:37.553Z,4.79
2023-03-05T20:26:41.314Z,4.84
2023-03-05T20:36:46.391Z,4.58
2023-03-05T20:47:42.336Z,4.54
2023-03-05T20:57:46.334Z,4.64
2023-03-05T21:07:49.461Z,4.49
2023-03-05T21:17:53.492Z,4.66
2023-03-05T21:27:58.285Z,4.59
2023-03-05T21:38:03.222Z,4.64
2023-03-05T21:48:06.713Z,4.64
2023-03-05T21:58:10.687Z,4.59
2023-03-05T22:08:13.363Z,4.74
2023-03-05T22:18:19.380Z,4.74
2023-03-05T22:28:21.965Z,5.04
2023-03-05T22:38:26.247Z,5.01
2023-03-05T22:48:28.845Z,4.78
2023-03-05T22:58:32.825Z,4.79
2023-03-05T23:08:35.617Z,4.79
2023-03-05T23:18:39.569Z,4.26
2023-03-05T23:28:42.609Z,3.93
2023-03-05T23:38:46.898Z,3.63
2023-03-05T23:48:49.525Z,3.57
2023-03-05T23:58:55.950Z,3.38
